Time;durP1;ratioP1;P1;durP2;ratioP2;P2;SDS_P1;SDS_P2;PMS_P1;PMS_P2;Temp;Humidity;BMP_temperature;BMP_pressure;BME280_temperature;BME280_humidity;BME280_pressure;Samples;Min_cycle;Max_cycle;Signal;HPM_P1;HPM_P2
2023/03/31 00:01:35;;;;;;;5.03;1.40;;;10.40;99.90;;;;;;5053362;28;20618;-48
2023/03/31 00:04:04;;;;;;;3.60;1.10;;;10.50;99.90;;;;;;5053442;28;20593;-47
2023/03/31 00:06:36;;;;;;;5.13;1.03;;;10.50;99.90;;;;;;5053036;28;20636;-47
2023/03/31 00:09:12;;;;;;;6.43;0.97;;;10.50;99.90;;;;;;5053500;28;20533;-47
2023/03/31 00:11:39;;;;;;;3.47;1.10;;;10.50;99.90;;;;;;5052920;28;20243;-47
2023/03/31 00:14:06;;;;;;;3.63;1.20;;;10.50;99.90;;;;;;5053107;28;20229;-47
2023/03/31 00:16:33;;;;;;;5.10;1.50;;;10.50;99.90;;;;;;5053146;28;20172;-47
2023/03/31 00:19:00;;;;;;;5.57;1.10;;;10.50;99.90;;;;;;5052943;28;20164;-46
2023/03/31 00:21:33;;;;;;;4.00;1.03;;;10.40;99.90;;;;;;5053298;28;20572;-47
2023/03/31 00:24:02;;;;;;;4.40;0.90;;;10.40;99.90;;;;;;5057333;28;20203;-46
2023/03/31 00:26:28;;;;;;;8.60;1.20;;;10.40;99.90;;;;;;5057175;28;20266;-47
2023/03/31 00:28:54;;;;;;;5.70;1.20;;;10.40;99.90;;;;;;5056809;28;20176;-47
2023/03/31 00:31:21;;;;;;;3.83;1.20;;;10.40;99.90;;;;;;5056925;28;20266;-46
2023/03/31 00:33:48;;;;;;;5.23;1.40;;;10.30;99.90;;;;;;5057096;28;20167;-44
2023/03/31 00:36:19;;;;;;;4.77;1.10;;;10.30;99.90;;;;;;5056691;28;20180;-49
2023/03/31 00:38:48;;;;;;;5.53;1.63;;;10.30;99.90;;;;;;5056939;28;20250;-46
2023/03/31 00:41:14;;;;;;;6.47;1.50;;;10.30;99.90;;;;;;5056787;28;20199;-45
2023/03/31 00:43:41;;;;;;;10.33;1.53;;;10.30;99.90;;;;;;5038803;28;20184;-45
2023/03/31 00:46:16;;;;;;;3.93;1.20;;;10.30;99.90;;;;;;5056468;28;20187;-46
2023/03/31 00:48:50;;;;;;;8.60;1.30;;;10.30;99.90;;;;;;5056458;28;20242;-46
2023/03/31 00:51:17;;;;;;;6.63;1.30;;;10.30;99.90;;;;;;5056242;28;20715;-45
2023/03/31 00:53:42;;;;;;;5.90;1.43;;;10.30;99.90;;;;;;5056386;28;20259;-46
2023/03/31 00:56:13;;;;;;;7.80;1.23;;;10.30;99.90;;;;;;5056266;28;20212;-48
2023/03/31 00:58:44;;;;;;;9.23;2.47;;;10.30;99.90;;;;;;5056807;28;20157;-44
2023/03/31 01:01:15;;;;;;;6.10;1.50;;;10.40;99.90;;;;;;5056368;28;20336;-47
2023/03/31 01:03:45;;;;;;;7.43;1.60;;;10.30;99.90;;;;;;5056394;28;20575;-44
2023/03/31 01:06:13;;;;;;;5.53;1.50;;;10.30;99.90;;;;;;5056014;28;20267;-46
2023/03/31 01:08:41;;;;;;;7.63;1.50;;;10.30;99.90;;;;;;5056297;28;20628;-44
2023/03/31 01:11:11;;;;;;;5.30;1.40;;;10.30;99.90;;;;;;5056105;28;20273;-46
2023/03/31 01:13:39;;;;;;;6.93;1.60;;;10.30;99.90;;;;;;5056088;28;20617;-47
2023/03/31 01:16:05;;;;;;;10.03;2.00;;;10.30;99.90;;;;;;5056209;28;20282;-46
2023/03/31 01:18:33;;;;;;;10.57;1.80;;;10.30;99.90;;;;;;5056147;28;20679;-45
2023/03/31 01:21:29;;;;;;;11.40;1.47;;;10.30;99.90;;;;;;5055700;28;20211;-45
2023/03/31 01:24:13;;;;;;;9.20;1.83;;;10.30;99.90;;;;;;5056676;28;20642;-52
2023/03/31 01:27:00;;;;;;;9.53;2.07;;;10.40;99.90;;;;;;5056014;28;20175;-50
2023/03/31 01:29:31;;;;;;;11.47;2.13;;;10.40;99.90;;;;;;5056266;28;20187;-51
2023/03/31 01:32:21;;;;;;;8.60;1.67;;;10.50;99.90;;;;;;5055631;28;20258;-51
2023/03/31 01:35:12;;;;;;;5.40;1.33;;;10.50;99.90;;;;;;5054768;28;20168;-51
2023/03/31 01:38:27;;;;;;;7.53;2.23;;;10.50;99.90;;;;;;5056221;28;20243;-48
2023/03/31 01:41:14;;;;;;;8.30;2.17;;;10.60;99.90;;;;;;4994034;28;20224;-49
2023/03/31 01:44:04;;;;;;;10.40;2.00;;;10.60;99.90;;;;;;4994451;28;20173;-49
2023/03/31 01:46:31;;;;;;;11.23;1.83;;;10.60;99.90;;;;;;5040899;28;20191;-51
2023/03/31 01:49:24;;;;;;;9.47;1.97;;;10.70;99.90;;;;;;5055360;28;20172;-52
2023/03/31 01:51:56;;;;;;;9.97;1.73;;;10.70;99.90;;;;;;5055104;28;20264;-50
2023/03/31 01:54:32;;;;;;;10.63;2.17;;;10.80;99.90;;;;;;5055607;28;20163;-50
2023/03/31 01:57:04;;;;;;;9.33;2.03;;;10.80;99.90;;;;;;5055468;28;20250;-49
2023/03/31 01:59:37;;;;;;;9.60;2.37;;;10.80;99.90;;;;;;5055546;28;20537;-48
2023/03/31 02:02:26;;;;;;;11.33;2.00;;;10.80;99.90;;;;;;5055168;28;20574;-51
2023/03/31 02:04:59;;;;;;;11.17;2.00;;;10.80;99.90;;;;;;5055292;28;20191;-51
2023/03/31 02:07:39;;;;;;;6.87;1.80;;;10.80;99.90;;;;;;5055293;28;20168;-50
2023/03/31 02:10:08;;;;;;;11.80;1.80;;;10.80;99.90;;;;;;5079281;22;20261;-47
2023/03/31 02:12:37;;;;;;;8.83;1.90;;;10.80;99.90;;;;;;5074999;28;20327;-48
2023/03/31 02:15:06;;;;;;;4.67;1.47;;;10.70;99.90;;;;;;5074763;28;20207;-49
2023/03/31 02:17:32;;;;;;;10.00;1.80;;;10.70;99.90;;;;;;5074804;28;20301;-48
2023/03/31 02:20:14;;;;;;;8.63;1.80;;;10.80;99.90;;;;;;5074643;28;20661;-48
2023/03/31 02:22:44;;;;;;;9.93;1.80;;;10.70;99.90;;;;;;5074633;28;20655;-47
2023/03/31 02:25:14;;;;;;;9.47;1.87;;;10.70;99.90;;;;;;5074674;28;20168;-48
2023/03/31 02:27:43;;;;;;;10.00;1.47;;;10.70;99.90;;;;;;5074594;28;20203;-49
2023/03/31 02:30:10;;;;;;;7.87;1.43;;;10.70;99.90;;;;;;5075079;28;20218;-49
2023/03/31 02:32:39;;;;;;;9.70;2.03;;;10.70;99.90;;;;;;5074683;28;20544;-49
2023/03/31 02:35:09;;;;;;;11.50;2.10;;;10.60;99.90;;;;;;5074715;28;20171;-48
2023/03/31 02:37:35;;;;;;;7.30;2.10;;;10.60;99.90;;;;;;5074558;28;20285;-49
2023/03/31 02:40:09;;;;;;;5.17;1.50;;;10.60;99.90;;;;;;5074470;28;20711;-48
2023/03/31 02:42:36;;;;;;;11.70;1.67;;;10.60;99.90;;;;;;5074534;28;20209;-49
2023/03/31 02:45:04;;;;;;;11.13;2.23;;;10.60;99.90;;;;;;5075291;28;20232;-47
2023/03/31 02:47:30;;;;;;;15.80;3.17;;;10.60;99.90;;;;;;5074538;28;20221;-48
2023/03/31 02:49:59;;;;;;;8.37;2.00;;;10.50;99.90;;;;;;5074844;28;20202;-48
2023/03/31 02:52:33;;;;;;;15.70;2.30;;;10.50;99.90;;;;;;5074078;28;20198;-49
2023/03/31 02:55:17;;;;;;;5.97;2.07;;;10.50;99.90;;;;;;5074155;28;20618;-50
2023/03/31 02:57:43;;;;;;;8.97;1.97;;;10.50;99.90;;;;;;5074530;28;20183;-47
2023/03/31 03:00:33;;;;;;;12.10;2.00;;;10.50;99.90;;;;;;5074027;28;20237;-49
2023/03/31 03:03:11;;;;;;;9.23;2.10;;;10.40;99.90;;;;;;5074081;28;20196;-49
2023/03/31 03:06:06;;;;;;;8.53;2.13;;;10.40;99.90;;;;;;5074387;28;20202;-49
2023/03/31 03:09:00;;;;;;;6.17;1.90;;;10.40;99.90;;;;;;5044699;28;20546;-49
2023/03/31 03:11:53;;;;;;;5.63;1.80;;;10.40;99.90;;;;;;5071283;28;20234;-49
2023/03/31 03:14:47;;;;;;;5.63;1.70;;;10.30;99.90;;;;;;5074191;28;20520;-49
2023/03/31 03:17:24;;;;;;;8.90;2.23;;;10.30;99.90;;;;;;5074160;28;20155;-47
2023/03/31 03:19:53;;;;;;;6.77;1.70;;;10.30;99.90;;;;;;5074050;28;20159;-47
2023/03/31 03:22:19;;;;;;;6.10;1.60;;;10.30;99.90;;;;;;5073546;28;20199;-47
2023/03/31 03:24:45;;;;;;;7.37;1.70;;;10.30;99.90;;;;;;5073903;28;20175;-46
2023/03/31 03:27:10;;;;;;;7.07;1.50;;;10.20;99.90;;;;;;5073602;28;20179;-46
2023/03/31 03:29:36;;;;;;;5.43;1.40;;;10.20;99.90;;;;;;5073827;28;20175;-46
2023/03/31 03:32:01;;;;;;;6.40;1.37;;;10.20;99.90;;;;;;5073666;28;20619;-47
2023/03/31 03:34:27;;;;;;;6.87;1.33;;;10.20;99.90;;;;;;5073760;28;20175;-47
2023/03/31 03:36:52;;;;;;;7.03;1.40;;;10.20;99.90;;;;;;5073710;28;20175;-48
2023/03/31 03:39:18;;;;;;;5.27;1.83;;;10.20;99.90;;;;;;5055581;28;20279;-47
2023/03/31 03:41:44;;;;;;;4.43;1.13;;;10.20;99.90;;;;;;5074818;28;20253;-48
2023/03/31 03:44:09;;;;;;;3.83;1.47;;;10.20;99.90;;;;;;5074801;28;20193;-50
2023/03/31 03:46:35;;;;;;;3.60;1.27;;;10.10;99.90;;;;;;5075307;28;20191;-48
2023/03/31 03:49:01;;;;;;;8.33;1.50;;;10.10;99.90;;;;;;5074398;28;20642;-50
2023/03/31 03:51:26;;;;;;;4.80;1.00;;;10.10;99.90;;;;;;5074308;28;20241;-49
2023/03/31 03:53:52;;;;;;;8.97;1.30;;;10.10;99.90;;;;;;5074246;28;20230;-48
2023/03/31 03:56:17;;;;;;;4.63;1.20;;;10.10;99.90;;;;;;5075323;28;20257;-48
2023/03/31 03:58:43;;;;;;;5.37;1.27;;;10.10;99.90;;;;;;5080670;28;20172;-50
2023/03/31 04:01:08;;;;;;;4.63;1.30;;;10.10;99.90;;;;;;5080899;28;20573;-51
2023/03/31 04:03:34;;;;;;;5.67;1.30;;;10.10;99.90;;;;;;5082954;28;20276;-48
2023/03/31 04:05:59;;;;;;;3.53;1.37;;;10.10;99.90;;;;;;5082626;28;20176;-49
2023/03/31 04:08:26;;;;;;;7.10;1.00;;;10.10;99.90;;;;;;5082122;28;20193;-48
2023/03/31 04:10:51;;;;;;;4.23;1.00;;;10.10;99.90;;;;;;5082024;28;20222;-49
2023/03/31 04:13:18;;;;;;;4.83;1.13;;;10.10;99.90;;;;;;5082841;28;20190;-49
2023/03/31 04:15:45;;;;;;;4.93;1.00;;;10.10;99.90;;;;;;5083084;28;20200;-49
2023/03/31 04:18:17;;;;;;;3.27;1.20;;;10.10;99.90;;;;;;5082913;28;20199;-50
2023/03/31 04:20:44;;;;;;;2.53;1.07;;;10.10;99.90;;;;;;5081484;28;20171;-49
2023/03/31 04:23:09;;;;;;;5.97;1.00;;;10.10;99.90;;;;;;5081632;28;20207;-46
2023/03/31 04:25:37;;;;;;;3.83;0.90;;;10.10;99.90;;;;;;5081704;28;20182;-49
2023/03/31 04:28:05;;;;;;;5.43;1.10;;;10.10;99.90;;;;;;5081966;28;20656;-48
2023/03/31 04:30:32;;;;;;;3.10;1.10;;;10.10;99.90;;;;;;5081683;28;20220;-47
2023/03/31 04:33:00;;;;;;;2.77;1.17;;;10.00;99.90;;;;;;5081698;28;20174;-48
2023/03/31 04:35:41;;;;;;;4.47;1.27;;;10.00;99.90;;;;;;5081768;28;20179;-49
2023/03/31 04:38:07;;;;;;;2.33;1.50;;;10.00;99.90;;;;;;5081353;28;20155;-48
2023/03/31 04:40:34;;;;;;;4.30;1.33;;;10.00;99.90;;;;;;5081107;28;20175;-47
2023/03/31 04:43:00;;;;;;;3.57;1.00;;;9.90;99.90;;;;;;5081236;28;20198;-48
2023/03/31 04:45:25;;;;;;;4.10;1.50;;;9.80;99.90;;;;;;5080862;28;20594;-48
2023/03/31 04:47:51;;;;;;;6.13;1.37;;;9.80;99.90;;;;;;5062798;28;20668;-48
2023/03/31 04:50:17;;;;;;;5.20;1.10;;;9.80;99.90;;;;;;5080332;28;20558;-48
2023/03/31 04:52:42;;;;;;;4.27;1.13;;;9.80;99.90;;;;;;5080597;28;20625;-48
2023/03/31 04:55:09;;;;;;;5.47;1.20;;;9.80;99.90;;;;;;5062162;28;20188;-48
2023/03/31 04:57:36;;;;;;;5.23;1.20;;;9.90;99.90;;;;;;5079829;28;20182;-47
2023/03/31 05:00:06;;;;;;;3.50;0.87;;;9.90;99.90;;;;;;5079982;28;20585;-47
2023/03/31 05:02:31;;;;;;;4.03;0.80;;;9.90;99.90;;;;;;5079712;28;20712;-48
2023/03/31 05:04:57;;;;;;;2.00;1.07;;;9.90;99.90;;;;;;5079652;28;20173;-48
2023/03/31 05:07:23;;;;;;;2.80;0.80;;;10.00;99.90;;;;;;5079934;28;20601;-47
2023/03/31 05:09:48;;;;;;;3.87;0.90;;;10.10;99.90;;;;;;5075459;28;20198;-49
2023/03/31 05:12:14;;;;;;;3.37;1.00;;;10.10;99.90;;;;;;5078004;28;20584;-49
2023/03/31 05:14:40;;;;;;;2.30;0.90;;;10.10;99.90;;;;;;5078325;28;20206;-48
2023/03/31 05:17:05;;;;;;;3.10;1.40;;;10.20;99.90;;;;;;5078425;28;20607;-48
2023/03/31 05:19:31;;;;;;;6.63;0.90;;;10.20;99.90;;;;;;5077804;28;20262;-49
2023/03/31 05:21:57;;;;;;;2.30;0.90;;;10.20;99.90;;;;;;5078028;28;20198;-49
2023/03/31 05:24:22;;;;;;;2.67;0.50;;;10.20;99.90;;;;;;5078230;28;20214;-48
2023/03/31 05:26:51;;;;;;;1.93;0.80;;;10.30;99.90;;;;;;5078809;28;20182;-48
2023/03/31 05:29:18;;;;;;;3.23;0.70;;;10.30;99.90;;;;;;5078191;28;20529;-48
2023/03/31 05:31:43;;;;;;;3.43;0.70;;;10.30;99.90;;;;;;5078195;28;20631;-49
2023/03/31 05:34:09;;;;;;;3.60;0.73;;;10.30;99.90;;;;;;5078076;28;20187;-47
2023/03/31 05:36:36;;;;;;;1.93;0.93;;;10.30;99.90;;;;;;5078102;28;20211;-49
2023/03/31 05:39:02;;;;;;;2.70;0.90;;;10.30;99.90;;;;;;5077317;28;20186;-48
2023/03/31 05:41:28;;;;;;;0.60;0.47;;;10.30;99.90;;;;;;5076353;28;20202;-49
2023/03/31 05:43:53;;;;;;;2.47;0.87;;;10.30;99.90;;;;;;5076689;28;20187;-48
2023/03/31 05:46:19;;;;;;;1.83;0.77;;;10.30;99.90;;;;;;5076446;28;20292;-50
2023/03/31 05:48:44;;;;;;;4.40;0.83;;;10.30;99.90;;;;;;5076471;28;20186;-47
2023/03/31 05:51:10;;;;;;;1.40;0.60;;;10.20;99.90;;;;;;5077332;28;20216;-48
2023/03/31 05:53:35;;;;;;;2.57;0.60;;;10.20;99.90;;;;;;5077803;28;20179;-49
2023/03/31 05:56:04;;;;;;;3.37;0.80;;;10.20;99.90;;;;;;5077822;28;20214;-47
2023/03/31 05:58:30;;;;;;;3.03;0.70;;;10.20;99.90;;;;;;5078538;28;20232;-47
2023/03/31 06:01:21;;;;;;;2.00;0.90;;;10.20;99.90;;;;;;5077880;28;20214;-48
2023/03/31 06:03:47;;;;;;;2.33;0.80;;;10.20;99.90;;;;;;5078174;28;20193;-48
2023/03/31 06:06:15;;;;;;;3.60;1.10;;;10.30;99.90;;;;;;5077843;28;20190;-48
2023/03/31 06:08:41;;;;;;;1.60;0.70;;;10.30;99.90;;;;;;5077841;28;20187;-47
2023/03/31 06:11:09;;;;;;;2.17;0.87;;;10.30;99.90;;;;;;5077522;28;20214;-49
2023/03/31 06:13:35;;;;;;;2.23;0.60;;;10.30;99.90;;;;;;5077432;28;20635;-49
2023/03/31 06:16:01;;;;;;;1.80;0.63;;;10.30;99.90;;;;;;5077112;28;20179;-50
2023/03/31 06:18:30;;;;;;;2.03;0.63;;;10.20;99.90;;;;;;5076861;28;20537;-50
2023/03/31 06:20:56;;;;;;;2.67;0.57;;;10.30;99.90;;;;;;5076579;28;20218;-48
2023/03/31 06:23:23;;;;;;;0.50;0.50;;;10.30;99.90;;;;;;5076877;28;20535;-50
2023/03/31 06:25:48;;;;;;;0.97;0.73;;;10.30;99.90;;;;;;5076718;28;20190;-49
2023/03/31 06:28:14;;;;;;;5.97;0.90;;;10.30;99.90;;;;;;5076279;28;20611;-48
2023/03/31 06:30:40;;;;;;;3.87;0.80;;;10.30;99.90;;;;;;5075802;28;20571;-50
2023/03/31 06:33:06;;;;;;;4.97;1.07;;;10.30;99.90;;;;;;5075743;28;20182;-49
2023/03/31 06:35:31;;;;;;;2.73;0.80;;;10.40;99.90;;;;;;5075200;28;20187;-50
2023/03/31 06:37:57;;;;;;;1.40;0.60;;;10.40;99.90;;;;;;5075011;28;20186;-49
2023/03/31 06:40:23;;;;;;;3.23;0.80;;;10.50;99.90;;;;;;5075145;28;20191;-49
2023/03/31 06:42:49;;;;;;;2.53;0.77;;;10.50;99.90;;;;;;5074516;28;20211;-50
2023/03/31 06:45:15;;;;;;;2.23;0.80;;;10.60;99.90;;;;;;5074878;28;20195;-51
2023/03/31 06:47:40;;;;;;;3.67;0.93;;;10.70;99.90;;;;;;5074929;28;20190;-49
2023/03/31 06:50:08;;;;;;;2.73;0.80;;;10.70;99.90;;;;;;5074979;28;20191;-46
2023/03/31 06:52:34;;;;;;;3.17;1.00;;;10.80;99.90;;;;;;5074679;28;20203;-48
2023/03/31 06:55:00;;;;;;;7.37;1.10;;;11.00;99.90;;;;;;5074175;28;20185;-50
2023/03/31 06:57:26;;;;;;;2.37;0.70;;;11.10;99.90;;;;;;5074082;28;20175;-48
2023/03/31 06:59:52;;;;;;;1.33;0.83;;;11.20;99.90;;;;;;5074056;28;20186;-49
2023/03/31 07:02:17;;;;;;;7.50;0.93;;;11.30;99.90;;;;;;5073946;28;20207;-50
2023/03/31 07:04:43;;;;;;;5.67;1.20;;;11.50;99.90;;;;;;5073973;28;20176;-49
2023/03/31 07:07:09;;;;;;;1.73;0.97;;;11.60;99.90;;;;;;5073897;28;20585;-48
2023/03/31 07:09:34;;;;;;;2.33;0.80;;;11.70;99.90;;;;;;5073916;28;20206;-48
2023/03/31 07:12:00;;;;;;;8.27;1.20;;;11.80;99.90;;;;;;5055741;28;20584;-49
2023/03/31 07:14:26;;;;;;;3.07;1.00;;;11.90;99.90;;;;;;5074137;28;20544;-48
2023/03/31 07:16:52;;;;;;;5.53;1.07;;;12.00;99.90;;;;;;5074152;28;20544;-49
2023/03/31 07:19:18;;;;;;;6.13;0.97;;;12.20;99.90;;;;;;5074560;28;20666;-47
2023/03/31 07:21:44;;;;;;;2.07;0.73;;;12.40;99.90;;;;;;5074750;28;20280;-49
2023/03/31 07:24:09;;;;;;;4.57;1.13;;;12.60;99.90;;;;;;5075214;28;20175;-50
2023/03/31 07:26:35;;;;;;;9.53;1.53;;;12.70;99.90;;;;;;5075888;28;20187;-50
2023/03/31 07:29:00;;;;;;;4.37;1.20;;;12.70;99.90;;;;;;5075962;28;20179;-50
2023/03/31 07:31:26;;;;;;;2.43;0.70;;;12.80;99.90;;;;;;5074828;28;20235;-48
2023/03/31 07:33:51;;;;;;;3.97;1.30;;;12.70;99.90;;;;;;5075183;28;20590;-49
2023/03/31 07:36:17;;;;;;;4.63;1.30;;;12.70;99.90;;;;;;5076051;28;20590;-49
2023/03/31 07:38:45;;;;;;;9.00;1.87;;;12.70;99.90;;;;;;5075808;28;20667;-50
2023/03/31 07:41:12;;;;;;;3.43;1.00;;;12.70;99.90;;;;;;5075160;28;20697;-49
2023/03/31 07:43:38;;;;;;;7.47;1.70;;;12.60;99.90;;;;;;5075011;28;20183;-50
2023/03/31 07:46:04;;;;;;;4.03;1.50;;;12.60;99.90;;;;;;5075028;28;20603;-50
2023/03/31 07:48:30;;;;;;;7.73;1.17;;;12.60;99.90;;;;;;5074964;28;20266;-50
2023/03/31 07:50:55;;;;;;;4.00;1.67;;;12.50;99.90;;;;;;5074548;28;20219;-50
2023/03/31 07:53:21;;;;;;;9.87;1.70;;;12.40;99.90;;;;;;5074326;28;20596;-49
2023/03/31 07:55:47;;;;;;;8.87;2.07;;;12.40;99.90;;;;;;5074540;28;20226;-48
2023/03/31 07:58:12;;;;;;;10.30;2.07;;;12.30;99.90;;;;;;5074030;28;20175;-50
2023/03/31 08:00:38;;;;;;;9.93;2.00;;;12.30;99.90;;;;;;5074265;28;20182;-49
2023/03/31 08:03:04;;;;;;;5.20;1.60;;;12.30;99.90;;;;;;5074050;28;20686;-48
2023/03/31 08:05:30;;;;;;;9.93;1.97;;;12.30;99.90;;;;;;5073828;28;20180;-50
2023/03/31 08:07:55;;;;;;;5.87;1.40;;;12.40;99.90;;;;;;5074196;28;20184;-49
2023/03/31 08:10:24;;;;;;;10.30;1.77;;;12.50;99.90;;;;;;5089465;22;20238;-48
2023/03/31 08:12:50;;;;;;;3.67;1.20;;;12.60;99.90;;;;;;5073164;28;20172;-46
2023/03/31 08:15:16;;;;;;;5.90;1.47;;;12.70;99.90;;;;;;5073676;28;20526;-45
2023/03/31 08:17:42;;;;;;;7.83;1.90;;;12.80;99.90;;;;;;5073081;28;20218;-44
2023/03/31 08:20:09;;;;;;;5.93;1.50;;;12.80;99.90;;;;;;5073065;28;20175;-47
2023/03/31 08:22:35;;;;;;;9.90;1.90;;;13.00;99.90;;;;;;5074803;28;20195;-46
2023/03/31 08:25:02;;;;;;;8.13;2.07;;;13.00;99.90;;;;;;5073383;28;20534;-45
2023/03/31 08:27:27;;;;;;;9.50;1.63;;;13.10;99.90;;;;;;5073236;28;20183;-48
2023/03/31 08:29:53;;;;;;;10.73;2.07;;;13.30;99.90;;;;;;5072994;28;20666;-47
2023/03/31 08:32:22;;;;;;;8.57;1.83;;;13.30;99.90;;;;;;5072890;28;20290;-47
2023/03/31 08:34:48;;;;;;;8.53;2.00;;;13.40;99.90;;;;;;5072916;28;20178;-46
2023/03/31 08:37:13;;;;;;;14.37;2.40;;;13.50;99.90;;;;;;5072992;28;20598;-46
2023/03/31 08:39:40;;;;;;;7.93;1.40;;;13.60;99.90;;;;;;5073096;28;20701;-46
2023/03/31 08:42:22;;;;;;;8.87;2.03;;;13.70;99.90;;;;;;5072822;28;20205;-46
2023/03/31 08:44:56;;;;;;;8.60;1.80;;;13.70;99.90;;;;;;5076937;28;20263;-48
2023/03/31 08:47:26;;;;;;;9.17;1.50;;;13.70;99.90;;;;;;5076523;28;20179;-47
2023/03/31 08:49:57;;;;;;;4.00;1.00;;;13.70;99.90;;;;;;5077104;28;20188;-48
2023/03/31 08:52:33;;;;;;;9.73;1.80;;;13.80;99.90;;;;;;5077222;28;20207;-48
2023/03/31 08:55:03;;;;;;;8.03;1.73;;;13.70;99.90;;;;;;5077104;28;20160;-49
2023/03/31 08:57:47;;;;;;;10.83;1.87;;;13.80;99.90;;;;;;5076349;28;20640;-48
2023/03/31 09:00:17;;;;;;;10.57;2.50;;;13.90;99.90;;;;;;5076627;28;20164;-47
2023/03/31 09:02:48;;;;;;;11.20;1.70;;;14.00;99.90;;;;;;5076414;28;20310;-49
2023/03/31 09:05:16;;;;;;;10.43;2.47;;;14.00;99.90;;;;;;5076309;28;20244;-48
2023/03/31 09:08:13;;;;;;;6.20;1.87;;;14.00;99.90;;;;;;5076232;28;20639;-49
2023/03/31 09:10:53;;;;;;;9.70;2.20;;;14.20;99.90;;;;;;5075366;28;20268;-49
2023/03/31 09:13:43;;;;;;;7.80;1.57;;;14.30;99.90;;;;;;5076664;28;20158;-48
2023/03/31 09:16:15;;;;;;;8.57;2.30;;;14.40;99.90;;;;;;5075629;28;20194;-47
2023/03/31 09:18:48;;;;;;;8.17;1.47;;;14.40;99.90;;;;;;5075999;28;20256;-48
2023/03/31 09:21:13;;;;;;;8.53;2.37;;;14.30;99.90;;;;;;5076354;28;20205;-52
2023/03/31 09:23:45;;;;;;;13.80;1.80;;;14.20;99.90;;;;;;5077058;28;20664;-53
2023/03/31 09:26:32;;;;;;;7.17;1.90;;;14.10;99.90;;;;;;5075886;28;20171;-52
2023/03/31 09:29:00;;;;;;;6.43;1.70;;;14.10;99.90;;;;;;5075975;28;20573;-53
2023/03/31 09:31:27;;;;;;;8.43;1.87;;;14.00;99.90;;;;;;5075542;28;20678;-50
2023/03/31 09:33:58;;;;;;;10.03;2.30;;;13.90;99.90;;;;;;5075965;28;20229;-53
2023/03/31 09:36:23;;;;;;;8.97;1.90;;;14.00;99.90;;;;;;5075919;28;20172;-54
2023/03/31 09:38:50;;;;;;;6.77;2.20;;;13.90;99.90;;;;;;5075874;28;20190;-51
2023/03/31 09:41:17;;;;;;;9.50;1.80;;;13.90;99.90;;;;;;5075769;28;20238;-52
2023/03/31 09:43:45;;;;;;;8.57;2.03;;;13.90;99.90;;;;;;5075764;28;20187;-53
2023/03/31 09:46:23;;;;;;;10.83;2.30;;;13.90;99.90;;;;;;5075436;28;20322;-52
2023/03/31 09:49:01;;;;;;;8.40;1.90;;;13.90;99.90;;;;;;5075732;28;20174;-52
2023/03/31 09:51:31;;;;;;;12.97;2.80;;;13.90;99.90;;;;;;5075459;28;20217;-50
2023/03/31 09:54:23;;;;;;;12.90;2.20;;;14.00;99.90;;;;;;5075309;28;20160;-52
2023/03/31 09:56:52;;;;;;;9.37;2.00;;;14.10;99.90;;;;;;5075331;28;20195;-51
2023/03/31 09:59:34;;;;;;;8.50;1.93;;;14.20;99.90;;;;;;5075161;28;20179;-53
2023/03/31 10:02:35;;;;;;;9.33;2.00;;;14.30;99.90;;;;;;5075406;28;20629;-51
2023/03/31 10:05:03;;;;;;;8.37;1.63;;;14.40;99.90;;;;;;5074920;28;20195;-51
2023/03/31 10:07:29;;;;;;;4.10;1.33;;;14.50;99.90;;;;;;5075401;28;20211;-52
2023/03/31 10:09:56;;;;;;;12.23;2.20;;;14.50;99.90;;;;;;5074975;28;20203;-51
2023/03/31 10:12:25;;;;;;;8.40;1.47;;;14.50;99.90;;;;;;5075065;28;20244;-52
2023/03/31 10:14:53;;;;;;;8.93;1.83;;;14.60;99.90;;;;;;5075169;28;20183;-51
2023/03/31 10:17:22;;;;;;;5.03;1.63;;;14.60;99.90;;;;;;5074901;28;20179;-52
2023/03/31 10:19:55;;;;;;;9.33;1.50;;;14.70;99.90;;;;;;5075007;28;20236;-50
2023/03/31 10:22:20;;;;;;;9.70;1.57;;;14.60;99.90;;;;;;5075686;28;20211;-50
2023/03/31 10:24:47;;;;;;;9.37;1.80;;;14.40;99.90;;;;;;5074672;28;20202;-48
2023/03/31 10:27:27;;;;;;;4.37;1.07;;;14.10;99.90;;;;;;5074983;28;20236;-48
2023/03/31 10:29:58;;;;;;;5.70;1.57;;;13.60;99.90;;;;;;5075102;28;20258;-47
2023/03/31 10:32:29;;;;;;;4.43;1.33;;;12.90;99.90;;;;;;5074984;28;20218;-46
2023/03/31 10:35:33;;;;;;;5.83;1.33;;;12.60;99.90;;;;;;5075085;28;20248;-47
2023/03/31 10:38:06;;;;;;;5.27;1.30;;;12.50;99.90;;;;;;5073505;28;20187;-46
2023/03/31 10:40:33;;;;;;;2.40;1.03;;;12.50;99.90;;;;;;5074625;28;20176;-46
2023/03/31 10:43:17;;;;;;;3.13;0.90;;;12.50;99.90;;;;;;5074345;28;20179;-47
2023/03/31 10:45:46;;;;;;;4.53;0.97;;;12.50;99.90;;;;;;5074248;28;20211;-46
2023/03/31 10:48:18;;;;;;;4.63;1.27;;;12.60;99.90;;;;;;5074484;28;20182;-46
2023/03/31 10:50:43;;;;;;;4.73;1.40;;;12.60;99.90;;;;;;5074344;28;20208;-47
2023/03/31 10:53:13;;;;;;;4.63;1.40;;;12.60;99.90;;;;;;5074527;28;20577;-46
2023/03/31 10:56:04;;;;;;;1.93;0.80;;;12.70;99.90;;;;;;5074107;28;20700;-45
2023/03/31 10:59:06;;;;;;;3.17;0.90;;;12.70;99.90;;;;;;5074368;28;20176;-46
2023/03/31 11:02:03;;;;;;;4.40;1.20;;;12.70;99.90;;;;;;5074110;28;20735;-46
2023/03/31 11:04:51;;;;;;;3.53;1.10;;;12.80;99.90;;;;;;5074051;28;20628;-45
2023/03/31 11:07:41;;;;;;;3.50;1.20;;;12.90;99.90;;;;;;5073017;28;20266;-47
2023/03/31 11:10:35;;;;;;;6.70;1.27;;;13.00;99.90;;;;;;5073926;28;20186;-47
2023/03/31 11:13:12;;;;;;;5.87;1.47;;;13.10;99.90;;;;;;5074057;28;20627;-46
2023/03/31 11:16:04;;;;;;;8.83;1.83;;;13.20;99.90;;;;;;5074057;28;20163;-46
2023/03/31 11:18:37;;;;;;;4.93;1.63;;;13.30;99.90;;;;;;5074023;28;20182;-47
2023/03/31 11:21:23;;;;;;;12.20;2.20;;;13.40;99.90;;;;;;5073807;28;20647;-46
2023/03/31 11:23:57;;;;;;;4.23;1.37;;;13.50;99.90;;;;;;5074992;28;20177;-45
2023/03/31 11:26:50;;;;;;;10.80;2.17;;;13.60;99.90;;;;;;5073639;28;20651;-46
2023/03/31 11:29:30;;;;;;;8.80;1.53;;;13.60;99.90;;;;;;5073640;28;20167;-44
2023/03/31 11:32:08;;;;;;;8.50;1.77;;;13.80;99.90;;;;;;5073816;28;20738;-46
2023/03/31 11:34:46;;;;;;;6.70;1.87;;;13.90;99.90;;;;;;5073677;28;20177;-46
2023/03/31 11:37:34;;;;;;;12.63;3.00;;;14.10;99.90;;;;;;5073952;28;20206;-49
2023/03/31 11:40:11;;;;;;;7.67;2.10;;;14.30;99.90;;;;;;5073845;28;20175;-48
2023/03/31 11:43:01;;;;;;;9.47;2.40;;;14.40;99.90;;;;;;5073897;28;20195;-48
2023/03/31 11:45:49;;;;;;;4.90;1.20;;;14.60;99.90;;;;;;5052312;28;20597;-46
2023/03/31 11:48:47;;;;;;;4.93;1.43;;;14.70;99.90;;;;;;5072941;28;20199;-45
2023/03/31 11:51:27;;;;;;;13.27;3.13;;;14.70;99.90;;;;;;5073653;28;20693;-47
2023/03/31 11:53:55;;;;;;;19.80;2.80;;;14.60;99.90;;;;;;5073485;28;20186;-48
2023/03/31 11:56:23;;;;;;;10.03;2.63;;;14.30;99.90;;;;;;5073807;28;20259;-50
2023/03/31 11:58:55;;;;;;;12.80;2.30;;;14.20;99.90;;;;;;5073318;28;20228;-50
2023/03/31 12:01:45;;;;;;;8.33;1.93;;;14.20;99.90;;;;;;5073493;28;20196;-51
2023/03/31 12:04:24;;;;;;;11.33;1.83;;;14.30;99.90;;;;;;5073478;28;20176;-50
2023/03/31 12:06:57;;;;;;;8.87;1.87;;;14.30;99.90;;;;;;5073541;28;20711;-51
2023/03/31 12:09:33;;;;;;;12.13;1.57;;;14.40;99.90;;;;;;5073466;28;20532;-50
2023/03/31 12:12:10;;;;;;;6.60;1.43;;;14.50;99.90;;;;;;5073094;28;20635;-50
2023/03/31 12:14:45;;;;;;;8.73;1.63;;;14.60;99.90;;;;;;5073501;28;20163;-49
2023/03/31 12:17:14;;;;;;;8.00;2.00;;;14.70;99.90;;;;;;5073385;28;20171;-50
2023/03/31 12:19:46;;;;;;;9.17;1.50;;;14.80;99.90;;;;;;5077388;28;20552;-51
2023/03/31 12:22:15;;;;;;;5.53;1.73;;;14.80;99.90;;;;;;5078766;28;20207;-51
2023/03/31 12:24:41;;;;;;;11.13;1.67;;;14.90;99.90;;;;;;5077001;28;20187;-50
2023/03/31 12:27:17;;;;;;;8.83;1.47;;;14.80;99.90;;;;;;5077783;28;20274;-50
2023/03/31 12:29:53;;;;;;;12.67;1.53;;;14.90;99.90;;;;;;5077214;28;20190;-52
2023/03/31 12:32:23;;;;;;;6.10;1.70;;;14.80;99.90;;;;;;5077045;28;20222;-51
2023/03/31 12:35:33;;;;;;;9.17;1.83;;;14.80;99.90;;;;;;5077094;28;20174;-51
2023/03/31 12:38:22;;;;;;;9.20;1.63;;;14.80;99.90;;;;;;5053812;28;20219;-51
2023/03/31 12:41:11;;;;;;;4.50;1.23;;;14.80;99.90;;;;;;5077234;28;20199;-52
2023/03/31 12:44:00;;;;;;;10.40;2.07;;;14.90;99.90;;;;;;5076807;28;20686;-50
2023/03/31 12:46:29;;;;;;;5.87;1.43;;;15.00;99.90;;;;;;5076977;28;20176;-49
2023/03/31 12:49:22;;;;;;;3.07;1.27;;;15.10;99.90;;;;;;5076552;28;20578;-52
2023/03/31 12:52:10;;;;;;;6.43;1.83;;;15.10;99.90;;;;;;5076800;28;20207;-51
2023/03/31 12:55:09;;;;;;;4.83;1.13;;;15.20;99.90;;;;;;5076784;28;20206;-51
2023/03/31 12:57:34;;;;;;;3.93;1.23;;;15.30;99.90;;;;;;5076721;28;20183;-50
2023/03/31 13:00:19;;;;;;;6.60;1.77;;;15.40;99.90;;;;;;5076592;28;20195;-51
2023/03/31 13:02:46;;;;;;;10.20;1.53;;;15.50;99.90;;;;;;5076487;28;20225;-49
2023/03/31 13:05:36;;;;;;;6.00;1.50;;;15.70;99.90;;;;;;5076505;28;20598;-50
2023/03/31 13:08:09;;;;;;;6.03;1.60;;;15.80;99.90;;;;;;5076149;28;20254;-52
2023/03/31 13:10:57;;;;;;;6.93;1.47;;;15.80;99.90;;;;;;5075971;28;20269;-50